createdAt,value
2017-05-30T00:01:03.245Z,25.39
2017-05-30T00:03:29.790Z,24.91
2017-05-30T00:05:56.138Z,26.47
2017-05-30T00:08:22.534Z,25.76
2017-05-30T00:10:48.874Z,25.40
2017-05-30T00:13:15.247Z,25.95
2017-05-30T00:15:41.589Z,25.61
2017-05-30T00:18:08.586Z,25.22
2017-05-30T00:20:35.104Z,25.28
2017-05-30T00:23:01.933Z,26.20
2017-05-30T00:25:29.021Z,25.89
2017-05-30T00:27:55.585Z,26.49
2017-05-30T00:30:21.992Z,25.47
2017-05-30T00:32:48.576Z,25.36
2017-05-30T00:35:14.954Z,24.97
2017-05-30T00:37:41.302Z,25.33
2017-05-30T00:40:07.651Z,25.77
2017-05-30T00:42:34.077Z,25.04
2017-05-30T00:45:00.445Z,25.24
2017-05-30T00:47:26.787Z,26.07
2017-05-30T00:49:53.174Z,25.94
2017-05-30T00:52:19.528Z,24.89
2017-05-30T00:54:45.872Z,25.14
2017-05-30T00:57:12.248Z,24.83
2017-05-30T00:59:38.601Z,26.23
2017-05-30T01:02:04.957Z,26.25
2017-05-30T01:04:31.300Z,24.61
2017-05-30T01:06:57.639Z,23.89
2017-05-30T01:09:23.973Z,25.23
2017-05-30T01:11:50.337Z,24.79
2017-05-30T01:14:16.676Z,24.58
2017-05-30T01:16:43.008Z,25.42
2017-05-30T01:19:09.406Z,25.38
2017-05-30T01:21:35.769Z,25.34
2017-05-30T01:24:02.132Z,24.71
2017-05-30T01:26:28.486Z,24.74
2017-05-30T01:28:54.810Z,24.85
2017-05-30T01:31:21.675Z,24.71
2017-05-30T01:33:53.205Z,25.10
2017-05-30T01:36:19.641Z,24.98
2017-05-30T01:38:49.064Z,23.44
2017-05-30T01:41:15.668Z,23.63
2017-05-30T01:43:47.610Z,23.59
2017-05-30T01:46:14.068Z,25.28
2017-05-30T01:48:45.966Z,24.06
2017-05-30T01:51:12.557Z,23.55
2017-05-30T01:53:39.327Z,23.54
2017-05-30T01:56:05.683Z,24.36
2017-05-30T01:58:33.635Z,24.05
2017-05-30T02:01:01.109Z,23.80
2017-05-30T02:03:33.196Z,23.95
2017-05-30T02:06:04.800Z,24.74
2017-05-30T02:08:31.629Z,23.53
2017-05-30T02:10:58.073Z,23.80
2017-05-30T02:13:25.280Z,23.46
2017-05-30T02:15:56.961Z,22.76
2017-05-30T02:18:23.507Z,24.37
2017-05-30T02:20:49.943Z,24.95
2017-05-30T02:23:19.426Z,23.79
2017-05-30T02:25:45.955Z,24.40
2017-05-30T02:28:12.466Z,24.57
2017-05-30T02:30:45.764Z,24.60
2017-05-30T02:33:12.323Z,24.85
2017-05-30T02:35:39.114Z,24.47
2017-05-30T02:38:10.624Z,23.67
2017-05-30T02:40:42.126Z,24.35
2017-05-30T02:43:08.756Z,24.75
2017-05-30T02:45:40.207Z,24.56
2017-05-30T02:48:07.920Z,24.47
2017-05-30T02:50:40.787Z,24.74
2017-05-30T02:53:07.651Z,24.20
2017-05-30T02:55:34.429Z,24.13
2017-05-30T02:58:00.994Z,24.29
2017-05-30T03:00:27.516Z,24.78
2017-05-30T03:02:53.918Z,24.28
2017-05-30T03:05:23.399Z,24.48
2017-05-30T03:07:49.746Z,24.73
2017-05-30T03:10:16.565Z,24.20
2017-05-30T03:12:42.985Z,24.17
2017-05-30T03:15:12.813Z,24.34
2017-05-30T03:17:40.291Z,23.72
2017-05-30T03:20:11.963Z,24.00
2017-05-30T03:22:44.326Z,23.52
2017-05-30T03:25:10.814Z,22.54
2017-05-30T03:27:42.820Z,22.94
2017-05-30T03:30:09.635Z,22.24
2017-05-30T03:32:41.325Z,22.74
2017-05-30T03:35:08.121Z,22.78
2017-05-30T03:37:34.850Z,24.36
2017-05-30T03:40:06.741Z,24.30
2017-05-30T03:42:34.033Z,23.57
2017-05-30T03:45:00.436Z,23.59
2017-05-30T03:47:31.974Z,23.41
2017-05-30T03:49:58.681Z,24.12
2017-05-30T03:52:25.069Z,24.05
2017-05-30T03:54:54.705Z,23.98
2017-05-30T03:57:21.057Z,24.01
2017-05-30T03:59:48.396Z,22.97
2017-05-30T04:02:14.807Z,22.56
2017-05-30T04:04:46.514Z,22.21
2017-05-30T04:07:13.410Z,23.55
2017-05-30T04:09:45.051Z,23.73
2017-05-30T04:12:11.380Z,24.03
2017-05-30T04:14:43.094Z,24.37
2017-05-30T04:17:14.595Z,24.26
2017-05-30T04:19:41.568Z,24.14
2017-05-30T04:22:07.953Z,23.95
2017-05-30T04:24:35.270Z,23.11
2017-05-30T04:27:02.431Z,22.97
2017-05-30T04:29:28.907Z,22.73
2017-05-30T04:31:55.332Z,23.67
2017-05-30T04:34:29.613Z,24.06
2017-05-30T04:37:01.423Z,23.19
2017-05-30T04:39:27.933Z,23.73
2017-05-30T04:41:59.473Z,23.48
2017-05-30T04:44:25.834Z,23.71
2017-05-30T04:46:58.119Z,23.97
2017-05-30T04:49:24.869Z,24.11
2017-05-30T04:51:51.750Z,23.57
2017-05-30T04:54:23.114Z,23.55
2017-05-30T04:56:49.520Z,23.02
2017-05-30T04:59:15.966Z,22.51
2017-05-30T05:01:47.557Z,22.21
2017-05-30T05:04:20.086Z,22.79
2017-05-30T05:06:50.570Z,23.66
2017-05-30T05:09:16.996Z,23.83
2017-05-30T05:11:48.831Z,23.81
2017-05-30T05:14:20.482Z,23.28
2017-05-30T05:16:46.925Z,23.51
2017-05-30T05:19:16.247Z,23.73
2017-05-30T05:21:42.904Z,24.12
2017-05-30T05:24:09.404Z,23.59
2017-05-30T05:26:41.074Z,23.45
2017-05-30T05:29:07.936Z,23.65
2017-05-30T05:31:35.543Z,23.86
2017-05-30T05:34:07.255Z,23.82
2017-05-30T05:36:33.696Z,23.78
2017-05-30T05:39:03.468Z,24.05
2017-05-30T05:41:30.329Z,23.72
2017-05-30T05:43:57.714Z,23.97
2017-05-30T05:46:24.052Z,23.73
2017-05-30T05:48:50.376Z,22.75
2017-05-30T05:51:16.734Z,23.03
2017-05-30T05:53:43.092Z,23.85
2017-05-30T05:56:09.445Z,24.02
2017-05-30T05:58:35.773Z,23.99
2017-05-30T06:01:02.132Z,23.80
2017-05-30T06:03:28.498Z,24.27
2017-05-30T06:05:54.867Z,24.05
2017-05-30T06:08:21.219Z,23.89
2017-05-30T06:10:47.579Z,23.79
2017-05-30T06:13:13.944Z,23.38
2017-05-30T06:15:40.390Z,23.95
2017-05-30T06:18:06.740Z,24.23
2017-05-30T06:20:33.058Z,23.81
2017-05-30T06:22:59.399Z,24.35
2017-05-30T06:25:25.757Z,24.33
2017-05-30T06:27:52.162Z,23.87
2017-05-30T06:30:18.532Z,24.13
2017-05-30T06:32:44.883Z,24.53
2017-05-30T06:35:11.232Z,24.16
2017-05-30T06:37:37.649Z,24.23
2017-05-30T06:40:03.974Z,24.36
2017-05-30T06:42:30.356Z,24.33
2017-05-30T06:44:56.725Z,24.15
2017-05-30T06:47:23.059Z,23.18
2017-05-30T06:49:49.396Z,22.82
2017-05-30T06:52:15.812Z,24.23
2017-05-30T06:54:42.134Z,24.66
2017-05-30T06:57:08.495Z,23.15
2017-05-30T06:59:34.823Z,23.35
2017-05-30T07:02:01.171Z,24.24
2017-05-30T07:04:27.517Z,23.47
2017-05-30T07:06:53.881Z,24.15
2017-05-30T07:09:20.214Z,24.69
2017-05-30T07:11:46.553Z,24.58
2017-05-30T07:14:12.926Z,24.98
2017-05-30T07:16:39.309Z,24.85
2017-05-30T07:19:05.675Z,24.71
2017-05-30T07:21:32.029Z,24.68
2017-05-30T07:23:58.378Z,24.47
2017-05-30T07:26:24.719Z,24.72
2017-05-30T07:28:51.076Z,24.02
2017-05-30T07:31:17.421Z,24.35
2017-05-30T07:33:43.770Z,24.52
2017-05-30T07:36:10.171Z,24.65
2017-05-30T07:38:36.510Z,24.97
2017-05-30T07:41:02.872Z,24.97
2017-05-30T07:43:29.225Z,24.53
2017-05-30T07:45:55.575Z,23.46
2017-05-30T07:48:21.919Z,23.82
2017-05-30T07:50:48.259Z,25.04
2017-05-30T07:53:14.599Z,25.44
2017-05-30T07:55:40.995Z,25.34
2017-05-30T07:58:07.398Z,25.20
2017-05-30T08:00:33.793Z,25.51
2017-05-30T08:03:00.189Z,25.20
2017-05-30T08:05:26.597Z,25.56
2017-05-30T08:07:53.044Z,25.75
2017-05-30T08:10:19.406Z,25.49
2017-05-30T08:12:45.787Z,24.77
2017-05-30T08:15:12.116Z,24.39
2017-05-30T08:17:38.542Z,25.35
2017-05-30T08:20:04.893Z,25.32
2017-05-30T08:22:31.249Z,25.47
2017-05-30T08:24:57.613Z,25.83
2017-05-30T08:27:24.019Z,25.85
2017-05-30T08:29:50.375Z,26.28
2017-05-30T08:32:16.729Z,26.36
2017-05-30T08:34:58.007Z,26.42
2017-05-30T08:37:24.365Z,26.45
2017-05-30T08:39:50.688Z,26.54
2017-05-30T08:42:17.032Z,25.96
2017-05-30T08:44:43.363Z,26.30
2017-05-30T08:47:09.725Z,26.52
2017-05-30T08:49:36.101Z,25.86
2017-05-30T08:52:02.462Z,25.46
2017-05-30T08:54:28.814Z,26.43
2017-05-30T08:56:55.169Z,26.21
2017-05-30T08:59:21.514Z,26.82
2017-05-30T09:01:47.839Z,26.13
2017-05-30T09:04:14.172Z,25.60
2017-05-30T09:06:40.510Z,26.03
2017-05-30T09:09:06.894Z,25.45
2017-05-30T09:11:33.273Z,25.09
2017-05-30T09:13:59.660Z,25.08
2017-05-30T09:16:25.998Z,25.99
2017-05-30T09:18:52.385Z,26.30
2017-05-30T09:21:18.747Z,26.46
2017-05-30T09:23:45.167Z,27.05
2017-05-30T09:26:11.538Z,27.09
2017-05-30T09:28:37.927Z,26.66
2017-05-30T09:31:04.473Z,27.34
2017-05-30T09:33:30.878Z,27.79
2017-05-30T09:35:57.904Z,27.69
2017-05-30T09:38:24.266Z,28.52
2017-05-30T09:40:50.975Z,26.85
2017-05-30T09:43:17.417Z,26.69
2017-05-30T09:45:43.766Z,27.50
2017-05-30T09:48:10.129Z,27.74
2017-05-30T09:50:36.443Z,27.09
2017-05-30T09:53:02.782Z,27.55
2017-05-30T09:55:29.114Z,28.75
2017-05-30T09:57:55.464Z,27.98
2017-05-30T10:00:21.801Z,28.29
2017-05-30T10:02:48.128Z,27.98
2017-05-30T10:05:14.483Z,29.07
2017-05-30T10:07:40.857Z,29.26
2017-05-30T10:10:07.233Z,29.00
2017-05-30T10:12:33.549Z,29.20
2017-05-30T10:14:59.871Z,28.83
2017-05-30T10:17:26.230Z,27.08
2017-05-30T10:19:52.549Z,27.10
2017-05-30T10:22:18.893Z,28.05
2017-05-30T10:24:45.230Z,27.80
2017-05-30T10:27:11.559Z,26.85
2017-05-30T10:29:37.859Z,27.84
2017-05-30T10:32:04.244Z,27.51
2017-05-30T10:34:30.567Z,26.82
2017-05-30T10:36:56.936Z,27.87
2017-05-30T10:39:23.330Z,28.23
2017-05-30T10:41:49.648Z,28.08
2017-05-30T10:44:16.052Z,28.26
2017-05-30T10:46:42.890Z,27.91
2017-05-30T10:49:09.275Z,27.42
2017-05-30T10:51:35.625Z,28.81
2017-05-30T10:54:01.977Z,27.25
2017-05-30T10:56:28.319Z,28.09
2017-05-30T10:58:54.692Z,28.17
2017-05-30T11:01:21.027Z,28.61
2017-05-30T11:03:47.399Z,28.21
2017-05-30T11:06:13.707Z,27.93
2017-05-30T11:08:40.048Z,26.05
2017-05-30T11:11:06.400Z,26.36
2017-05-30T11:13:32.746Z,25.93
2017-05-30T11:15:59.063Z,25.40
2017-05-30T11:18:25.410Z,26.63
2017-05-30T11:20:51.737Z,24.78
2017-05-30T11:23:18.114Z,26.13
2017-05-30T11:25:44.447Z,25.89
2017-05-30T11:28:10.758Z,25.87
2017-05-30T11:30:37.090Z,25.57
2017-05-30T11:33:03.607Z,26.24
2017-05-30T11:35:29.944Z,25.58
2017-05-30T11:37:56.273Z,25.50
2017-05-30T11:40:22.629Z,25.54
2017-05-30T11:42:48.932Z,26.07
2017-05-30T11:45:15.733Z,26.01
2017-05-30T11:47:42.079Z,25.41
2017-05-30T11:50:08.463Z,26.15
2017-05-30T11:52:34.796Z,26.75
2017-05-30T11:55:01.127Z,26.58
2017-05-30T11:57:27.463Z,27.10
2017-05-30T11:59:53.945Z,26.53
2017-05-30T12:02:20.289Z,27.02
2017-05-30T12:04:46.655Z,27.38
2017-05-30T12:07:13.022Z,27.34
2017-05-30T12:09:39.379Z,27.15
2017-05-30T12:12:05.765Z,27.30
2017-05-30T12:14:32.119Z,26.62
2017-05-30T12:16:58.460Z,26.01
2017-05-30T12:19:24.805Z,26.51
2017-05-30T12:21:51.123Z,25.73
2017-05-30T12:24:17.449Z,25.43
2017-05-30T12:26:43.808Z,26.33
2017-05-30T12:29:10.169Z,26.72
2017-05-30T12:31:36.520Z,24.81
2017-05-30T12:34:02.874Z,25.83
2017-05-30T12:36:29.197Z,26.36
2017-05-30T12:38:55.546Z,26.28
2017-05-30T12:41:21.891Z,26.55
2017-05-30T12:43:48.249Z,25.46
2017-05-30T12:46:14.605Z,24.22
2017-05-30T12:48:40.955Z,25.55
2017-05-30T12:51:07.278Z,25.57
2017-05-30T12:53:33.626Z,24.86
2017-05-30T12:56:00.030Z,25.14
2017-05-30T12:58:26.379Z,24.89
2017-05-30T13:00:52.743Z,25.44
2017-05-30T13:03:19.102Z,24.51
2017-05-30T13:05:45.464Z,24.38
2017-05-30T13:08:11.803Z,25.15
2017-05-30T13:10:38.159Z,25.12
2017-05-30T13:13:04.491Z,25.64
2017-05-30T13:15:30.823Z,25.16
2017-05-30T13:17:57.159Z,25.81
2017-05-30T13:20:23.522Z,25.51
2017-05-30T13:22:49.877Z,25.36
2017-05-30T13:25:16.221Z,24.57
2017-05-30T13:27:42.563Z,24.82
2017-05-30T13:30:08.908Z,25.57
2017-05-30T13:32:35.293Z,25.14
2017-05-30T13:35:01.644Z,25.23
2017-05-30T13:37:27.979Z,25.36
2017-05-30T13:39:54.311Z,25.68
2017-05-30T13:42:20.649Z,25.60
2017-05-30T13:44:46.981Z,25.77
2017-05-30T13:47:13.288Z,25.96
2017-05-30T13:49:39.620Z,25.40
2017-05-30T13:52:05.970Z,25.82
2017-05-30T13:54:32.280Z,25.63
2017-05-30T13:56:58.660Z,26.19
2017-05-30T13:59:25.013Z,26.20
2017-05-30T14:01:51.381Z,26.26
2017-05-30T14:04:17.745Z,26.13
2017-05-30T14:06:44.115Z,25.95
2017-05-30T14:09:10.460Z,25.99
2017-05-30T14:11:36.798Z,25.79
2017-05-30T14:14:03.158Z,26.11
2017-05-30T14:16:29.467Z,25.99
2017-05-30T14:18:55.797Z,26.09
2017-05-30T14:21:22.141Z,25.79
2017-05-30T14:23:48.475Z,26.24
2017-05-30T14:26:14.845Z,25.71
2017-05-30T14:28:41.191Z,25.87
2017-05-30T14:31:07.511Z,26.15
2017-05-30T14:33:33.850Z,26.20
2017-05-30T14:36:00.191Z,26.29
2017-05-30T14:38:26.550Z,26.89
2017-05-30T14:40:52.909Z,27.00
2017-05-30T14:43:19.270Z,26.63
2017-05-30T14:45:45.580Z,27.11
2017-05-30T14:48:11.913Z,26.74
2017-05-30T14:50:38.257Z,27.36
2017-05-30T14:53:04.581Z,27.20
2017-05-30T14:55:30.924Z,27.47
2017-05-30T14:57:57.245Z,27.17
2017-05-30T15:00:23.599Z,27.19
2017-05-30T15:02:49.938Z,28.13
2017-05-30T15:05:16.293Z,27.96
2017-05-30T15:07:42.647Z,28.45
2017-05-30T15:10:09.030Z,28.56
2017-05-30T15:12:35.958Z,28.41
2017-05-30T15:15:02.330Z,27.77
2017-05-30T15:17:28.661Z,28.64
2017-05-30T15:19:55.072Z,27.49
2017-05-30T15:22:21.401Z,27.82
2017-05-30T15:24:47.734Z,28.36
2017-05-30T15:27:14.180Z,28.91
2017-05-30T15:29:40.564Z,29.24
2017-05-30T15:32:06.901Z,29.49
2017-05-30T15:34:33.241Z,29.23
2017-05-30T15:36:59.584Z,29.33
2017-05-30T15:39:26.447Z,29.31
2017-05-30T15:41:53.963Z,29.60
2017-05-30T15:44:20.348Z,29.32
2017-05-30T15:46:46.869Z,29.07
2017-05-30T15:49:13.548Z,28.76
2017-05-30T15:51:40.303Z,28.64
2017-05-30T15:54:06.854Z,28.93
2017-05-30T15:56:33.678Z,28.74
2017-05-30T15:59:00.231Z,28.61
2017-05-30T16:01:27.107Z,28.30
2017-05-30T16:03:53.467Z,27.72
2017-05-30T16:06:21.322Z,27.77
2017-05-30T16:08:48.529Z,27.59
2017-05-30T16:11:15.680Z,27.28
2017-05-30T16:13:42.867Z,27.45
2017-05-30T16:16:09.878Z,27.52
2017-05-30T16:18:36.963Z,27.44
2017-05-30T16:21:03.369Z,27.19
2017-05-30T16:23:30.552Z,27.13
2017-05-30T16:25:56.942Z,27.25
2017-05-30T16:28:23.980Z,27.34
2017-05-30T16:30:50.393Z,26.99
2017-05-30T16:33:17.494Z,27.08
2017-05-30T16:35:44.476Z,27.18
2017-05-30T16:38:10.871Z,27.39
2017-05-30T16:40:37.657Z,27.52
2017-05-30T16:43:04.368Z,27.55
2017-05-30T16:45:30.895Z,27.65
2017-05-30T16:47:57.911Z,27.31
2017-05-30T16:50:26.337Z,27.02
2017-05-30T16:52:52.907Z,26.38
2017-05-30T16:55:19.739Z,26.50
2017-05-30T16:57:46.211Z,25.88
2017-05-30T17:00:12.687Z,25.93
2017-05-30T17:02:39.019Z,25.52
2017-05-30T17:05:05.384Z,25.42
2017-05-30T17:07:31.798Z,25.59
2017-05-30T17:09:58.144Z,25.55
2017-05-30T17:12:24.503Z,25.49
2017-05-30T17:14:50.852Z,25.28
2017-05-30T17:17:17.292Z,25.64
2017-05-30T17:19:43.655Z,25.23
2017-05-30T17:22:09.993Z,25.11
2017-05-30T17:24:36.350Z,25.76
2017-05-30T17:27:02.711Z,25.50
2017-05-30T17:29:29.351Z,25.49
2017-05-30T17:31:55.899Z,25.08
2017-05-30T17:34:22.780Z,25.37
2017-05-30T17:36:49.179Z,24.91
2017-05-30T17:39:15.576Z,25.29
2017-05-30T17:41:42.691Z,24.90
2017-05-30T17:44:09.044Z,24.05
2017-05-30T17:46:35.875Z,24.83
2017-05-30T17:49:02.252Z,24.93
2017-05-30T17:51:29.449Z,25.11
2017-05-30T17:53:55.858Z,25.07
2017-05-30T17:56:22.194Z,24.64
2017-05-30T17:58:48.519Z,24.64
2017-05-30T18:01:14.876Z,24.81
2017-05-30T18:03:41.203Z,24.31
2017-05-30T18:06:07.495Z,24.15
2017-05-30T18:08:33.830Z,24.91
2017-05-30T18:11:00.159Z,24.78
2017-05-30T18:13:26.521Z,24.59
2017-05-30T18:15:52.915Z,24.63
2017-05-30T18:18:19.978Z,24.51
2017-05-30T18:20:46.869Z,24.26
2017-05-30T18:23:14.105Z,24.01
2017-05-30T18:25:41.224Z,24.11
2017-05-30T18:28:07.735Z,24.02
2017-05-30T18:30:34.791Z,24.34
2017-05-30T18:33:01.162Z,23.26
2017-05-30T18:35:28.119Z,24.08
2017-05-30T18:37:54.497Z,23.58
2017-05-30T18:40:20.906Z,23.42
2017-05-30T18:42:47.599Z,23.81
2017-05-30T18:45:13.987Z,23.76
2017-05-30T18:47:40.332Z,23.39
2017-05-30T18:50:06.718Z,23.79
2017-05-30T18:52:33.062Z,23.18
2017-05-30T18:54:59.484Z,22.74
2017-05-30T18:57:25.823Z,22.92
2017-05-30T18:59:52.350Z,22.34
2017-05-30T19:02:18.765Z,22.29
2017-05-30T19:04:45.137Z,22.71
2017-05-30T19:07:12.210Z,22.50
2017-05-30T19:09:38.651Z,22.62
2017-05-30T19:12:05.034Z,22.75
2017-05-30T19:14:31.390Z,23.11
2017-05-30T19:16:57.760Z,23.32
2017-05-30T19:19:24.089Z,23.20
2017-05-30T19:21:50.446Z,22.92
2017-05-30T19:24:16.807Z,23.19
2017-05-30T19:26:43.700Z,21.94
2017-05-30T19:29:10.238Z,21.97
2017-05-30T19:31:36.773Z,22.38
2017-05-30T19:34:03.168Z,22.16
2017-05-30T19:36:29.630Z,22.69
2017-05-30T19:38:56.345Z,22.83
2017-05-30T19:41:23.317Z,22.83
2017-05-30T19:43:49.813Z,22.60
2017-05-30T19:46:16.160Z,22.42
2017-05-30T19:48:43.261Z,22.26
2017-05-30T19:51:09.677Z,21.46
2017-05-30T19:53:36.027Z,22.01
2017-05-30T19:56:02.367Z,21.91
2017-05-30T19:58:28.703Z,21.33
2017-05-30T20:00:55.092Z,21.83
2017-05-30T20:03:21.500Z,21.77
2017-05-30T20:05:47.855Z,21.78
2017-05-30T20:08:14.229Z,21.57
2017-05-30T20:10:40.618Z,21.41
2017-05-30T20:13:06.948Z,21.61
2017-05-30T20:15:33.341Z,21.94
2017-05-30T20:18:00.495Z,21.40
2017-05-30T20:20:27.199Z,21.07
2017-05-30T20:22:53.648Z,21.60
2017-05-30T20:25:20.750Z,21.06
2017-05-30T20:27:47.117Z,21.78
2017-05-30T20:30:13.515Z,21.48
2017-05-30T20:32:39.845Z,21.74
2017-05-30T20:35:06.216Z,21.59
2017-05-30T20:37:32.653Z,20.98
2017-05-30T20:39:59.026Z,21.28
2017-05-30T20:42:25.470Z,21.64
2017-05-30T20:44:51.834Z,21.88
2017-05-30T20:47:18.179Z,21.86
2017-05-30T20:49:44.582Z,21.33
2017-05-30T20:52:10.959Z,20.73
2017-05-30T20:54:37.320Z,21.22
2017-05-30T20:57:04.271Z,21.77
2017-05-30T20:59:30.655Z,20.42
2017-05-30T21:01:57.023Z,20.89
2017-05-30T21:04:23.346Z,21.33
2017-05-30T21:06:49.694Z,21.01
2017-05-30T21:09:16.129Z,21.18
2017-05-30T21:11:42.456Z,20.76
2017-05-30T21:14:08.798Z,20.83
2017-05-30T21:16:35.148Z,21.29
2017-05-30T21:19:02.737Z,21.16
2017-05-30T21:21:29.115Z,20.62
2017-05-30T21:23:55.443Z,20.30
2017-05-30T21:26:21.828Z,21.33
2017-05-30T21:28:48.151Z,21.14
2017-05-30T21:31:14.543Z,21.23
2017-05-30T21:33:40.896Z,20.86
2017-05-30T21:36:07.235Z,21.63
2017-05-30T21:38:33.645Z,21.29
2017-05-30T21:41:00.005Z,20.59
2017-05-30T21:43:26.326Z,20.90
2017-05-30T21:45:52.751Z,20.75
2017-05-30T21:48:19.084Z,20.88
2017-05-30T21:50:45.419Z,20.80
2017-05-30T21:53:11.796Z,21.60
2017-05-30T21:55:38.190Z,20.63
2017-05-30T21:58:04.518Z,19.90
2017-05-30T22:00:30.837Z,20.59
2017-05-30T22:02:58.335Z,21.14
2017-05-30T22:05:24.719Z,21.03
2017-05-30T22:07:51.082Z,20.38
2017-05-30T22:10:17.408Z,20.79
2017-05-30T22:12:43.753Z,19.98
2017-05-30T22:15:10.087Z,20.88
2017-05-30T22:17:36.549Z,20.67
2017-05-30T22:20:02.986Z,21.51
2017-05-30T22:22:29.335Z,20.14
2017-05-30T22:24:55.670Z,19.70
2017-05-30T22:27:22.000Z,19.57
2017-05-30T22:29:48.369Z,20.55
2017-05-30T22:32:14.694Z,19.97
2017-05-30T22:34:41.013Z,21.08
2017-05-30T22:37:07.347Z,20.52
2017-05-30T22:39:33.719Z,19.94
2017-05-30T22:42:00.058Z,19.61
2017-05-30T22:44:26.403Z,19.23
2017-05-30T22:46:52.752Z,20.07
2017-05-30T22:49:19.129Z,20.60
2017-05-30T22:51:45.453Z,20.23
2017-05-30T22:54:11.773Z,19.72
2017-05-30T22:56:38.201Z,19.95
2017-05-30T22:59:04.520Z,19.01
2017-05-30T23:01:30.884Z,20.47
2017-05-30T23:03:57.212Z,20.42
2017-05-30T23:06:23.532Z,18.75
2017-05-30T23:08:49.876Z,19.19
2017-05-30T23:11:16.213Z,18.87
2017-05-30T23:13:42.553Z,19.01
2017-05-30T23:16:08.930Z,19.82
2017-05-30T23:18:35.273Z,18.90
2017-05-30T23:21:01.606Z,19.10
2017-05-30T23:23:27.910Z,19.37
2017-05-30T23:25:54.255Z,18.47
2017-05-30T23:28:20.633Z,18.30
2017-05-30T23:30:46.935Z,17.58
2017-05-30T23:33:13.268Z,17.83
2017-05-30T23:35:39.667Z,17.63
2017-05-30T23:38:05.970Z,17.68
2017-05-30T23:40:32.335Z,17.91
2017-05-30T23:42:58.744Z,18.62
2017-05-30T23:45:25.171Z,18.03
2017-05-30T23:47:51.805Z,16.97
2017-05-30T23:50:18.185Z,17.34
2017-05-30T23:52:44.591Z,18.01
2017-05-30T23:55:10.996Z,18.87
2017-05-30T23:57:37.638Z,17.84
